Time;durP1;ratioP1;P1;durP2;ratioP2;P2;SDS_P1;SDS_P2;PMS_P1;PMS_P2;Temp;Humidity;BMP_temperature;BMP_pressure;BME280_temperature;BME280_humidity;BME280_pressure;Samples;Min_cycle;Max_cycle;Signal;HPM_P1;HPM_P2
2022/07/25 00:03:21;;;;;;;5.50;4.70;;;;;;;18.79;70.66;96612.63;10409411;28;20683;-70
2022/07/25 00:08:21;;;;;;;5.60;4.57;;;;;;;18.91;70.39;96604.00;10409145;28;20291;-71
2022/07/25 00:13:22;;;;;;;5.82;4.78;;;;;;;19.04;69.89;96590.69;10409690;28;20196;-71
2022/07/25 00:18:22;;;;;;;6.80;5.05;;;;;;;19.07;69.84;96592.91;10408372;28;20219;-70
2022/07/25 00:23:22;;;;;;;5.25;4.53;;;;;;;19.21;69.65;96588.31;10408634;28;20196;-70
2022/07/25 00:28:23;;;;;;;6.65;4.10;;;;;;;19.29;69.18;96581.94;10408688;28;20242;-71
2022/07/25 00:33:23;;;;;;;8.20;4.60;;;;;;;19.45;68.65;96570.78;10408763;28;20243;-70
2022/07/25 00:38:23;;;;;;;5.95;4.60;;;;;;;19.59;68.08;96572.28;10407683;28;20224;-70
2022/07/25 00:43:24;;;;;;;5.18;4.65;;;;;;;19.73;67.48;96566.88;10408297;28;20402;-70
2022/07/25 00:48:25;;;;;;;5.05;4.20;;;;;;;19.88;67.10;96555.94;10407627;28;20192;-70
2022/07/25 00:53:26;;;;;;;10.20;5.00;;;;;;;19.79;67.30;96560.72;10408091;28;20283;-70
2022/07/25 00:58:26;;;;;;;5.53;4.63;;;;;;;19.91;67.11;96555.50;10407688;28;20234;-70
2022/07/25 01:03:27;;;;;;;6.78;4.63;;;;;;;20.00;66.76;96548.88;10405891;28;20205;-70
2022/07/25 01:08:27;;;;;;;6.63;5.10;;;;;;;20.06;66.48;96541.81;10407596;28;20220;-70
2022/07/25 01:13:31;;;;;;;10.40;4.63;;;;;;;20.02;66.52;96538.81;10390255;28;20201;-70
2022/07/25 01:18:33;;;;;;;8.38;4.78;;;;;;;20.06;66.59;96536.50;10407305;28;20221;-70
2022/07/25 01:23:33;;;;;;;6.72;5.13;;;;;;;20.17;66.09;96532.31;10407950;28;20218;-70
2022/07/25 01:28:34;;;;;;;6.03;4.82;;;;;;;20.06;66.40;96532.03;10406897;28;20203;-70
2022/07/25 01:33:34;;;;;;;5.60;4.57;;;;;;;20.09;66.76;96528.91;10407124;28;20220;-69
2022/07/25 01:38:34;;;;;;;6.15;4.97;;;;;;;20.03;66.73;96528.97;10406926;28;20220;-70
2022/07/25 01:43:35;;;;;;;6.53;5.30;;;;;;;19.91;67.33;96527.06;10408044;28;20232;-70
2022/07/25 01:48:35;;;;;;;7.03;5.68;;;;;;;19.99;67.18;96523.28;10414394;28;20196;-70
2022/07/25 01:53:35;;;;;;;9.57;5.85;;;;;;;20.03;67.31;96524.50;10415406;28;20201;-70
2022/07/25 01:58:36;;;;;;;6.60;5.07;;;;;;;19.98;67.30;96526.19;10414373;28;20221;-70
2022/07/25 02:03:36;;;;;;;6.43;5.28;;;;;;;20.05;66.98;96521.59;10414503;28;20683;-70
2022/07/25 02:08:37;;;;;;;8.13;5.32;;;;;;;20.05;67.16;96514.44;10414019;28;20192;-70
2022/07/25 02:13:37;;;;;;;6.07;5.47;;;;;;;20.22;66.88;96513.84;10413894;28;20298;-70
2022/07/25 02:18:38;;;;;;;5.55;4.95;;;;;;;20.31;66.87;96505.31;10412722;28;20220;-70
2022/07/25 02:23:39;;;;;;;7.95;5.45;;;;;;;20.24;67.24;96517.88;10413671;28;20531;-70
2022/07/25 02:28:40;;;;;;;6.68;5.75;;;;;;;20.28;67.22;96513.75;10413052;28;20190;-70
2022/07/25 02:33:40;;;;;;;7.32;5.20;;;;;;;20.34;67.35;96512.06;10413021;28;20218;-70
2022/07/25 02:38:40;;;;;;;6.70;6.00;;;;;;;20.37;66.92;96493.00;10412889;28;20228;-70
2022/07/25 02:43:41;;;;;;;6.72;5.20;;;;;;;20.35;66.97;96502.22;10412448;28;20228;-70
2022/07/25 02:48:41;;;;;;;6.00;5.40;;;;;;;20.37;66.87;96493.00;10412614;28;20263;-69
2022/07/25 02:53:41;;;;;;;6.38;5.75;;;;;;;20.27;67.45;96514.78;10412682;28;20197;-70
2022/07/25 02:58:42;;;;;;;7.03;5.40;;;;;;;20.38;67.13;96499.13;10410598;28;20746;-70
2022/07/25 03:03:42;;;;;;;7.55;5.55;;;;;;;20.25;67.52;96497.44;10415441;28;20723;-70
2022/07/25 03:08:42;;;;;;;7.63;5.43;;;;;;;20.35;67.12;96499.56;10446920;28;20724;-70
2022/07/25 03:13:43;;;;;;;7.15;5.60;;;;;;;20.37;66.95;96484.19;10445682;28;20547;-69
2022/07/25 03:18:43;;;;;;;8.45;5.18;;;;;;;20.37;67.07;96497.47;10443596;28;20661;-70
2022/07/25 03:23:43;;;;;;;14.32;5.90;;;;;;;20.29;67.42;96494.09;10444845;28;20199;-70
2022/07/25 03:28:44;;;;;;;9.95;5.90;;;;;;;20.24;67.66;96490.47;10443659;28;20312;-70
2022/07/25 03:33:45;;;;;;;6.00;5.40;;;;;;;20.34;67.29;96484.63;10444571;28;20227;-70
2022/07/25 03:38:45;;;;;;;7.20;5.57;;;;;;;20.48;66.74;96475.44;10444110;28;20308;-70
2022/07/25 03:43:45;;;;;;;8.15;5.00;;;;;;;20.65;66.12;96467.66;10444400;28;20641;-70
2022/07/25 03:48:46;;;;;;;6.95;5.40;;;;;;;20.47;66.62;96464.00;10444600;28;20636;-69
2022/07/25 03:54:01;;;;;;;7.30;6.13;;;;;;;20.63;65.76;96457.22;10443979;28;20744;-70
2022/07/25 03:59:02;;;;;;;6.30;5.47;;;;;;;20.47;66.52;96465.84;10443095;28;20265;-70
2022/07/25 04:04:03;;;;;;;8.40;5.50;;;;;;;20.63;66.04;96459.88;10449461;28;20547;-70
2022/07/25 04:09:14;;;;;;;10.85;5.57;;;;;;;20.68;65.65;96453.91;10490980;28;20202;-70
2022/07/25 04:26:27;;;;;;;9.63;5.68;;;;;;;20.54;66.53;96449.78;10204892;29;20199;-70
2022/07/25 04:31:47;;;;;;;5.88;5.28;;;;;;;20.66;66.17;96440.03;10204929;29;20222;-70
2022/07/25 04:36:55;;;;;;;6.63;5.38;;;;;;;20.69;66.47;96433.41;10494352;22;20227;-59
2022/07/25 04:41:56;;;;;;;7.07;5.07;;;;;;;20.89;65.58;96428.63;10536337;28;20327;-60
2022/07/25 04:46:56;;;;;;;6.15;5.55;;;;;;;21.33;64.32;96407.78;10535708;28;20186;-60
2022/07/25 04:51:56;;;;;;;7.53;5.13;;;;;;;21.40;64.02;96393.53;10535861;28;20210;-58
2022/07/25 04:56:57;;;;;;;6.18;5.57;;;;;;;21.60;63.35;96386.00;10535419;28;20271;-58
2022/07/25 05:01:57;;;;;;;9.07;5.57;;;;;;;21.85;62.86;96376.91;10535395;28;20213;-59
2022/07/25 05:06:58;;;;;;;6.45;4.93;;;;;;;22.15;61.56;96351.88;10535151;28;20190;-61
2022/07/25 05:11:58;;;;;;;5.70;4.90;;;;;;;22.26;61.17;96345.66;10535114;28;20241;-61
2022/07/25 05:16:58;;;;;;;6.25;4.93;;;;;;;22.27;61.36;96364.09;10535043;28;20666;-61
2022/07/25 05:21:59;;;;;;;6.22;5.38;;;;;;;22.39;61.62;96361.41;10541700;28;20263;-62
2022/07/25 05:26:59;;;;;;;6.30;5.30;;;;;;;22.54;61.13;96350.19;10543428;28;20191;-62
2022/07/25 05:32:00;;;;;;;11.70;6.00;;;;;;;22.67;60.79;96345.56;10543316;28;20583;-61
2022/07/25 05:37:00;;;;;;;7.88;5.65;;;;;;;22.86;60.56;96348.78;10543045;28;20238;-62
2022/07/25 05:42:00;;;;;;;7.88;5.65;;;;;;;23.10;59.91;96341.44;10542817;28;20249;-56
2022/07/25 05:47:01;;;;;;;13.77;6.03;;;;;;;23.27;58.50;96306.66;10542594;28;20190;-56
2022/07/25 05:52:01;;;;;;;6.85;6.05;;;;;;;23.44;58.63;96319.97;10542486;28;20225;-54
2022/07/25 05:57:02;;;;;;;12.38;5.97;;;;;;;23.69;57.29;96284.69;10542299;28;20573;-56
2022/07/25 06:02:02;;;;;;;8.35;6.15;;;;;;;23.87;56.44;96267.53;10536850;28;20218;-58
2022/07/25 06:07:02;;;;;;;7.63;5.50;;;;;;;24.06;56.18;96265.31;10494575;28;20236;-60
2022/07/25 06:12:03;;;;;;;8.75;5.70;;;;;;;24.23;55.66;96270.53;10496361;28;20203;-60
2022/07/25 06:17:04;;;;;;;10.05;5.65;;;;;;;24.40;55.12;96257.03;10495936;28;20221;-59
2022/07/25 06:22:04;;;;;;;7.88;5.50;;;;;;;24.49;55.47;96252.81;10496417;28;20215;-58
2022/07/25 06:27:05;;;;;;;9.30;5.55;;;;;;;24.80;54.34;96242.31;10496005;28;20217;-59
2022/07/25 06:32:06;;;;;;;8.15;4.22;;;;;;;25.24;52.75;96220.56;10495790;28;20272;-59
2022/07/25 06:37:06;;;;;;;9.05;5.60;;;;;;;25.24;52.76;96227.81;10494661;28;20233;-58
2022/07/25 06:42:06;;;;;;;7.10;5.35;;;;;;;25.03;52.88;96210.81;10494718;28;20272;-58
2022/07/25 06:47:11;;;;;;;7.68;5.63;;;;;;;25.69;51.79;96199.50;10495402;28;20262;-57
2022/07/25 06:52:11;;;;;;;8.80;5.38;;;;;;;25.80;51.36;96189.59;10494665;28;20237;-58
2022/07/25 06:57:12;;;;;;;7.20;5.10;;;;;;;26.13;50.83;96192.88;10494358;28;20230;-59
2022/07/25 07:02:12;;;;;;;7.20;4.77;;;;;;;26.33;50.54;96181.31;10494282;28;20254;-56
2022/07/25 07:07:42;;;;;;;8.03;5.63;;;;;;;25.78;51.80;96202.50;10494808;28;20449;-59
2022/07/25 07:12:43;;;;;;;7.45;4.97;;;;;;;25.91;51.41;96182.38;10453689;28;20469;-60
2022/07/25 07:17:50;;;;;;;6.28;4.78;;;;;;;26.08;50.74;96180.25;10518872;28;20227;-57
2022/07/25 07:23:01;;;;;;;6.10;4.78;;;;;;;25.96;51.13;96185.88;10539594;28;20218;-59
2022/07/25 07:28:08;;;;;;;5.80;5.20;;;;;;;25.88;51.87;96207.06;10542661;28;20186;-58
2022/07/25 07:33:28;;;;;;;5.78;5.15;;;;;;;26.14;51.08;96197.97;10509455;28;20226;-59
2022/07/25 07:38:29;;;;;;;6.18;5.47;;;;;;;26.37;50.33;96182.41;10537320;28;20595;-57
2022/07/25 07:43:30;;;;;;;5.80;5.20;;;;;;;26.39;50.42;96188.28;10492761;28;20234;-56
2022/07/25 07:48:32;;;;;;;5.18;4.68;;;;;;;27.30;49.33;96182.13;10494598;28;20397;-59
2022/07/25 07:58:51;;;;;;;7.35;5.32;;;;;;;27.00;49.11;96181.97;10535339;28;20223;-57
2022/07/25 08:03:51;;;;;;;6.27;5.03;;;;;;;27.58;48.55;96188.69;10530565;28;20244;-58
2022/07/25 08:08:52;;;;;;;8.00;5.18;;;;;;;27.64;47.98;96157.97;10535324;28;20464;-60
2022/07/25 08:13:52;;;;;;;6.10;5.22;;;;;;;27.43;47.82;96143.06;10506742;28;20222;-59
2022/07/25 08:18:53;;;;;;;7.28;5.75;;;;;;;27.59;48.49;96171.47;10492887;28;20253;-61
2022/07/25 08:23:53;;;;;;;6.10;4.73;;;;;;;28.34;46.56;96162.28;10493079;28;20198;-58
2022/07/25 08:28:54;;;;;;;6.28;4.60;;;;;;;28.66;45.39;96138.56;10493284;28;20489;-57
2022/07/25 08:33:54;;;;;;;5.50;5.00;;;;;;;28.35;46.80;96179.28;10501747;28;20611;-56
2022/07/25 08:38:54;;;;;;;9.07;5.47;;;;;;;28.82;45.55;96162.38;10533910;28;20901;-57
2022/07/25 08:43:55;;;;;;;5.60;5.10;;;;;;;28.11;46.65;96153.09;10533643;28;21273;-56
2022/07/25 08:48:55;;;;;;;7.20;5.53;;;;;;;28.57;45.74;96141.06;10516206;28;20633;-55
2022/07/25 08:53:55;;;;;;;6.93;5.20;;;;;;;28.66;45.40;96131.28;10527286;28;20187;-59
2022/07/25 08:58:57;;;;;;;6.75;5.38;;;;;;;29.62;43.41;96108.72;10515399;28;20218;-59
2022/07/25 09:03:58;;;;;;;6.47;4.90;;;;;;;28.95;43.78;96087.25;10534226;28;20193;-59
2022/07/25 09:08:59;;;;;;;7.22;5.28;;;;;;;29.11;44.72;96120.22;10515620;28;20222;-59
2022/07/25 09:14:04;;;;;;;6.50;4.90;;;;;;;29.70;43.97;96104.53;10533764;28;20224;-60
2022/07/25 09:19:09;;;;;;;7.28;5.00;;;;;;;29.60;44.16;96112.78;10532084;28;20226;-59
2022/07/25 09:24:17;;;;;;;6.57;5.45;;;;;;;29.47;43.75;96093.56;10533546;28;20267;-58
2022/07/25 09:29:26;;;;;;;8.27;5.55;;;;;;;29.35;43.55;96082.41;10532597;28;20202;-58
2022/07/25 09:34:36;;;;;;;5.47;4.97;;;;;;;29.52;42.91;96077.28;10533214;28;20234;-58
2022/07/25 09:39:42;;;;;;;8.55;5.45;;;;;;;29.49;42.58;96056.28;10533139;28;20302;-59
2022/07/25 09:44:43;;;;;;;5.72;4.85;;;;;;;30.20;41.29;96047.25;10533449;28;20661;-59
2022/07/25 09:49:46;;;;;;;8.60;5.30;;;;;;;29.03;42.40;96024.56;10531852;28;20218;-59
2022/07/25 09:54:46;;;;;;;6.75;5.43;;;;;;;29.21;42.36;96043.78;10532231;28;20209;-58
2022/07/25 09:59:46;;;;;;;7.53;5.40;;;;;;;29.74;42.27;96067.78;10532720;28;20226;-60
2022/07/25 10:05:08;;;;;;;9.50;5.90;;;;;;;29.95;41.59;96062.03;10534592;28;20324;-60
2022/07/25 10:10:20;;;;;;;5.47;4.50;;;;;;;29.30;41.63;96020.44;10514635;22;20497;-72
2022/07/25 10:15:20;;;;;;;7.43;5.38;;;;;;;29.40;41.32;96005.97;10453828;28;20562;-72
2022/07/25 10:21:09;;;;;;;5.72;5.13;;;;;;;29.73;40.00;95970.88;10454818;28;20196;-69
2022/07/25 10:26:18;;;;;;;8.00;5.30;;;;;;;29.50;40.02;95959.94;10397254;28;20538;-71
2022/07/25 10:31:32;;;;;;;5.70;4.80;;;;;;;29.76;39.79;95971.06;10432824;28;20944;-72
2022/07/25 10:37:16;;;;;;;5.95;5.35;;;;;;;29.27;40.48;95948.19;10398584;28;20220;-72
2022/07/25 10:42:21;;;;;;;8.63;5.55;;;;;;;29.48;39.56;95935.94;10385487;28;20204;-71
2022/07/25 10:47:26;;;;;;;6.78;4.68;;;;;;;30.01;40.19;95969.00;10388377;28;20193;-71
2022/07/25 10:52:28;;;;;;;8.70;5.43;;;;;;;29.93;39.40;95945.41;10389246;28;20208;-71
2022/07/25 10:57:31;;;;;;;5.28;4.78;;;;;;;29.76;39.46;95921.69;10402785;28;20300;-71
2022/07/25 11:02:31;;;;;;;8.18;4.22;;;;;;;30.11;38.66;95930.19;10371295;28;20198;-72
2022/07/25 11:07:35;;;;;;;8.25;5.13;;;;;;;30.13;39.97;95944.19;10371208;28;20217;-71
2022/07/25 11:12:36;;;;;;;8.48;5.38;;;;;;;29.73;40.06;95928.47;10370707;28;20316;-71
2022/07/25 11:17:36;;;;;;;11.52;5.50;;;;;;;30.21;38.67;95901.03;10369550;28;20320;-72
2022/07/25 11:22:36;;;;;;;5.77;4.93;;;;;;;30.56;37.43;95866.25;10370919;28;20197;-72
2022/07/25 11:27:37;;;;;;;10.63;4.53;;;;;;;30.22;36.80;95829.69;10421300;28;20482;-71
2022/07/25 11:32:39;;;;;;;13.88;5.13;;;;;;;30.66;37.84;95877.94;10389911;28;20446;-72
2022/07/25 11:37:41;;;;;;;6.13;5.57;;;;;;;30.61;37.76;95873.44;10384969;28;20710;-72
2022/07/25 11:42:53;;;;;;;4.60;4.20;;;;;;;30.63;36.98;95829.88;10411183;28;20243;-71
2022/07/25 11:48:08;;;;;;;5.90;4.95;;;;;;;31.12;37.08;95856.00;10410096;28;20188;-72
2022/07/25 11:53:13;;;;;;;11.57;5.28;;;;;;;30.96;37.30;95846.66;10409810;28;20224;-72
2022/07/25 11:58:13;;;;;;;5.38;4.90;;;;;;;30.66;37.64;95831.97;10409073;28;20708;-72
2022/07/25 12:03:16;;;;;;;6.28;4.63;;;;;;;30.79;37.91;95838.44;10409680;28;20290;-72
2022/07/25 12:08:18;;;;;;;9.27;5.63;;;;;;;30.90;37.61;95837.06;10409119;28;20193;-72
2022/07/25 12:13:23;;;;;;;8.70;5.10;;;;;;;30.81;37.37;95801.84;10408856;28;20228;-72
2022/07/25 12:18:23;;;;;;;9.30;5.30;;;;;;;31.83;36.24;95808.38;10373974;28;20226;-72
2022/07/25 12:23:23;;;;;;;5.50;5.00;;;;;;;31.35;37.43;95826.19;10368145;28;20649;-72
2022/07/25 12:28:24;;;;;;;6.47;5.35;;;;;;;31.11;37.57;95811.09;10376237;28;20341;-71
2022/07/25 12:33:24;;;;;;;13.43;5.82;;;;;;;30.93;38.29;95823.72;10424249;28;20219;-71
2022/07/25 12:38:25;;;;;;;6.30;5.10;;;;;;;32.59;37.49;95858.69;10408486;28;20236;-72
2022/07/25 12:43:25;;;;;;;7.15;5.18;;;;;;;32.07;36.45;95812.53;10407862;28;20596;-72
2022/07/25 12:48:25;;;;;;;11.37;4.80;;;;;;;31.97;35.32;95764.88;10408783;28;20271;-72
2022/07/25 12:53:26;;;;;;;4.85;4.35;;;;;;;31.97;36.25;95770.28;10400477;28;20451;-72
2022/07/25 12:58:26;;;;;;;5.93;5.43;;;;;;;32.72;34.78;95775.56;10396601;28;20227;-72
2022/07/25 13:03:26;;;;;;;7.83;4.90;;;;;;;32.67;34.80;95745.91;10387081;28;20450;-72
2022/07/25 13:08:27;;;;;;;5.57;5.03;;;;;;;32.57;35.55;95759.78;10387121;28;20525;-72
2022/07/25 13:13:28;;;;;;;5.80;5.20;;;;;;;31.26;36.19;95727.94;10386288;28;20432;-72
2022/07/25 13:18:29;;;;;;;6.72;4.82;;;;;;;32.40;34.80;95728.06;10407141;28;20731;-71
2022/07/25 13:23:29;;;;;;;7.57;4.95;;;;;;;32.85;34.67;95766.44;10406459;28;20192;-72
2022/07/25 13:28:30;;;;;;;7.10;4.27;;;;;;;32.94;34.08;95714.06;10406842;28;20254;-72
2022/07/25 13:33:30;;;;;;;12.25;5.20;;;;;;;32.72;35.27;95729.44;10406597;28;20467;-71
2022/07/25 13:38:33;;;;;;;12.25;4.80;;;;;;;32.14;34.62;95694.44;10406258;28;20243;-71
2022/07/25 13:44:25;;;;;;;8.63;4.47;;;;;;;33.04;34.82;95716.41;10414753;28;20200;-71
2022/07/25 13:49:25;;;;;;;5.78;4.15;;;;;;;33.15;33.39;95670.69;10414472;28;20534;-71
2022/07/25 13:54:25;;;;;;;8.10;4.80;;;;;;;32.99;34.37;95695.69;10414549;28;20188;-72
2022/07/25 13:59:26;;;;;;;5.25;4.75;;;;;;;32.28;34.63;95675.31;10414248;28;20224;-71
2022/07/25 14:04:26;;;;;;;5.40;4.90;;;;;;;33.27;33.64;95689.81;10413935;28;20188;-71
2022/07/25 14:09:27;;;;;;;7.57;4.47;;;;;;;34.78;30.89;95632.72;10413475;28;20475;-71
2022/07/25 14:14:27;;;;;;;6.43;4.80;;;;;;;35.13;30.60;95618.66;10413938;28;20223;-71
2022/07/25 14:19:27;;;;;;;6.77;4.97;;;;;;;34.00;31.91;95612.59;10410332;28;20228;-72
2022/07/25 14:24:28;;;;;;;4.90;4.50;;;;;;;34.83;31.60;95635.22;10397749;28;20447;-71
2022/07/25 14:29:28;;;;;;;6.50;5.00;;;;;;;33.64;32.45;95613.22;10389002;28;20528;-70
2022/07/25 14:34:28;;;;;;;7.72;5.13;;;;;;;34.48;32.25;95629.38;10409057;28;20463;-70
2022/07/25 14:39:29;;;;;;;8.23;5.10;;;;;;;34.48;31.82;95611.13;10410674;28;20298;-70
2022/07/25 14:44:29;;;;;;;7.07;4.67;;;;;;;34.56;32.19;95633.13;10412613;28;20558;-70
2022/07/25 14:49:29;;;;;;;7.20;5.03;;;;;;;34.60;31.07;95564.09;10412297;28;20474;-70
2022/07/25 14:54:30;;;;;;;5.72;5.13;;;;;;;34.72;31.00;95582.34;10411855;28;20466;-70
2022/07/25 14:59:30;;;;;;;5.73;4.57;;;;;;;34.40;31.62;95575.91;10411831;28;20323;-72
2022/07/25 15:04:30;;;;;;;11.03;4.53;;;;;;;35.22;31.06;95579.59;10411077;28;20517;-70
2022/07/25 15:09:31;;;;;;;11.15;4.60;;;;;;;35.00;30.76;95547.06;10410663;28;20494;-71
2022/07/25 15:14:31;;;;;;;6.00;4.47;;;;;;;36.30;30.00;95582.63;10411711;28;20188;-72
2022/07/25 15:19:32;;;;;;;8.70;5.20;;;;;;;34.26;30.71;95494.66;10411312;28;20489;-71
2022/07/25 15:24:32;;;;;;;4.70;4.20;;;;;;;34.46;30.28;95493.72;10411583;28;20451;-72
2022/07/25 15:29:32;;;;;;;7.83;4.27;;;;;;;34.21;30.26;95470.38;10410954;28;20562;-71
2022/07/25 15:34:33;;;;;;;6.60;4.50;;;;;;;32.81;31.99;95467.09;10411051;28;20860;-71
2022/07/25 15:39:33;;;;;;;9.03;4.27;;;;;;;33.64;31.54;95505.34;10410778;28;20901;-72
2022/07/25 15:44:33;;;;;;;9.13;4.70;;;;;;;34.51;30.31;95505.53;10409489;28;20821;-72
2022/07/25 15:49:35;;;;;;;5.80;4.50;;;;;;;34.44;29.70;95468.81;10410225;28;20879;-72
2022/07/25 15:54:36;;;;;;;9.15;4.40;;;;;;;34.03;30.55;95462.44;10408853;28;20470;-71
2022/07/25 15:59:36;;;;;;;10.47;4.53;;;;;;;33.83;30.43;95436.97;10404112;28;20216;-71
2022/07/25 16:04:36;;;;;;;14.20;5.23;;;;;;;32.42;32.03;95425.72;10389174;28;20538;-71
2022/07/25 16:09:37;;;;;;;6.67;4.77;;;;;;;31.57;33.55;95449.00;10410842;28;20481;-72
2022/07/25 16:14:37;;;;;;;5.33;4.77;;;;;;;32.15;33.40;95471.13;10409857;28;20427;-71
2022/07/25 16:19:37;;;;;;;7.43;4.10;;;;;;;31.71;33.59;95458.84;10410049;28;20487;-71
2022/07/25 16:24:38;;;;;;;5.63;5.13;;;;;;;32.03;33.10;95445.81;10393495;28;20439;-71
2022/07/25 16:29:39;;;;;;;6.38;4.63;;;;;;;32.14;32.89;95444.34;10410834;28;20738;-71
2022/07/25 16:34:39;;;;;;;6.05;4.55;;;;;;;32.20;33.13;95448.47;10410498;28;20243;-71
2022/07/25 16:39:39;;;;;;;5.83;4.43;;;;;;;31.87;33.62;95451.78;10410571;28;20285;-71
2022/07/25 16:44:40;;;;;;;5.27;4.27;;;;;;;32.19;33.37;95441.44;10410956;28;20446;-71
2022/07/25 16:49:40;;;;;;;6.60;4.80;;;;;;;32.19;32.95;95425.19;10409450;28;20435;-72
2022/07/25 16:54:40;;;;;;;6.23;4.77;;;;;;;31.48;34.10;95416.50;10410416;28;20216;-72
2022/07/25 16:59:41;;;;;;;10.23;4.73;;;;;;;30.87;35.24;95426.63;10410302;28;20486;-72
2022/07/25 17:04:42;;;;;;;6.88;4.72;;;;;;;30.88;35.65;95436.31;10409323;28;20435;-72
2022/07/25 17:09:42;;;;;;;5.20;4.30;;;;;;;30.54;35.62;95418.97;10409981;28;20646;-71
2022/07/25 17:14:43;;;;;;;6.43;4.90;;;;;;;30.48;35.92;95412.13;10408408;28;20885;-71
2022/07/25 17:19:43;;;;;;;6.72;4.80;;;;;;;30.29;36.13;95417.78;10409574;28;20804;-71
2022/07/25 17:24:45;;;;;;;6.10;4.45;;;;;;;30.31;36.58;95437.19;10409752;28;20578;-71
2022/07/25 17:29:45;;;;;;;5.47;4.90;;;;;;;30.16;36.63;95446.53;10409236;28;20195;-71
2022/07/25 17:34:46;;;;;;;5.47;4.57;;;;;;;29.95;37.31;95462.50;10409710;28;20489;-71
2022/07/25 17:39:46;;;;;;;5.28;4.68;;;;;;;29.87;37.45;95451.34;10408589;28;20479;-71
2022/07/25 17:44:50;;;;;;;10.80;4.50;;;;;;;29.77;37.87;95475.09;10409238;28;20217;-71
2022/07/25 17:49:51;;;;;;;5.25;4.53;;;;;;;29.81;37.97;95468.78;10408319;28;20192;-71
2022/07/25 17:54:51;;;;;;;7.70;4.97;;;;;;;29.57;38.56;95468.31;10409133;28;20200;-72
2022/07/25 17:59:52;;;;;;;5.10;4.53;;;;;;;29.41;38.74;95482.19;10409143;28;20250;-71
2022/07/25 18:04:52;;;;;;;8.63;4.55;;;;;;;29.29;39.10;95495.44;10408558;28;20634;-71
2022/07/25 18:09:52;;;;;;;6.23;4.63;;;;;;;29.14;39.41;95488.47;10408746;28;20733;-71
2022/07/25 18:14:53;;;;;;;7.90;4.90;;;;;;;29.06;39.85;95490.00;10408452;28;20973;-71
2022/07/25 18:19:53;;;;;;;9.50;4.93;;;;;;;29.05;40.22;95514.59;10408216;28;20946;-71
2022/07/25 18:24:53;;;;;;;18.67;5.60;;;;;;;28.74;41.52;95620.38;10408639;28;20192;-72
2022/07/25 18:29:54;;;;;;;23.93;5.80;;;;;;;28.45;43.37;95672.63;10415101;28;20465;-71
2022/07/25 18:34:54;;;;;;;14.60;6.73;;;;;;;28.07;47.02;95783.94;10415641;28;20566;-72
2022/07/25 18:39:54;;;;;;;19.00;6.72;;;;;;;27.84;48.46;95825.13;10414973;28;20435;-72
2022/07/25 18:44:55;;;;;;;25.30;7.23;;;;;;;27.39;50.67;95838.84;10414998;28;20311;-71
2022/07/25 18:49:56;;;;;;;21.98;6.40;;;;;;;27.15;51.79;95871.88;10413920;28;20443;-71
2022/07/25 18:54:57;;;;;;;23.67;6.65;;;;;;;27.06;52.38;95887.03;10413954;28;20192;-72
2022/07/25 18:59:58;;;;;;;18.42;6.90;;;;;;;26.68;53.94;95914.47;10413919;28;20192;-71
2022/07/25 19:04:58;;;;;;;16.88;6.70;;;;;;;26.27;55.42;95925.41;10413121;28;20575;-72
2022/07/25 19:09:59;;;;;;;19.27;7.15;;;;;;;26.14;56.48;95942.94;10412643;28;20322;-71
2022/07/25 19:14:59;;;;;;;16.27;6.30;;;;;;;25.85;57.75;95947.28;10412484;28;20710;-72
2022/07/25 19:20:00;;;;;;;16.08;6.45;;;;;;;25.92;57.52;95937.06;10412951;28;20648;-72
2022/07/25 19:25:04;;;;;;;11.85;6.60;;;;;;;25.92;58.00;95929.81;10413157;28;20548;-71
2022/07/25 19:30:08;;;;;;;15.20;7.07;;;;;;;24.87;61.54;95958.06;10412865;28;20224;-71
2022/07/25 19:35:09;;;;;;;20.67;6.68;;;;;;;25.02;61.40;95943.88;10413408;28;20205;-71
2022/07/25 19:40:09;;;;;;;22.00;7.25;;;;;;;24.88;62.35;95933.69;10411484;28;20193;-71
2022/07/25 19:45:10;;;;;;;17.60;7.10;;;;;;;24.24;65.15;95947.47;10412788;28;20196;-71
2022/07/25 19:50:10;;;;;;;16.33;7.30;;;;;;;23.77;66.60;95963.28;10411741;28;20282;-71
2022/07/25 19:55:11;;;;;;;18.40;7.45;;;;;;;23.45;68.21;95961.47;10411852;28;20196;-71
2022/07/25 20:00:11;;;;;;;15.63;6.95;;;;;;;23.43;68.97;95981.50;10411417;28;20250;-71
2022/07/25 20:05:12;;;;;;;22.08;7.55;;;;;;;23.53;68.36;95965.53;10411865;28;20283;-71
2022/07/25 20:10:12;;;;;;;21.10;7.80;;;;;;;23.18;69.95;95964.22;10411659;28;20362;-71
2022/07/25 20:15:12;;;;;;;24.13;7.60;;;;;;;23.08;70.92;95977.47;10411536;28;20211;-71
2022/07/25 20:20:13;;;;;;;16.55;7.38;;;;;;;23.26;71.14;95968.28;10410441;28;20197;-71
2022/07/25 20:25:13;;;;;;;14.30;7.57;;;;;;;23.23;70.95;95960.78;10415049;28;20205;-70
2022/07/25 20:30:14;;;;;;;20.58;7.28;;;;;;;22.84;73.61;95968.97;10410862;28;20204;-71
2022/07/25 20:35:14;;;;;;;20.30;8.05;;;;;;;22.84;73.41;95953.75;10410509;28;20274;-70
2022/07/25 20:40:18;;;;;;;10.07;7.72;;;;;;;22.68;73.42;95936.78;10410526;28;20188;-72
2022/07/25 20:45:18;;;;;;;13.38;7.82;;;;;;;22.48;74.36;95928.56;10410696;28;20192;-71
2022/07/25 20:50:18;;;;;;;21.10;8.15;;;;;;;22.64;73.40;95930.34;10409670;28;20205;-71
2022/07/25 20:55:19;;;;;;;21.45;8.00;;;;;;;22.74;73.15;95930.44;10410397;28;20219;-71
2022/07/25 21:00:20;;;;;;;18.05;8.00;;;;;;;22.52;74.45;95943.84;10409545;28;20223;-71
2022/07/25 21:31:07;;;;;;;22.40;7.85;;;;;;;22.17;75.08;95953.03;10141024;28;20197;-70
2022/07/25 21:36:07;;;;;;;20.08;7.88;;;;;;;22.03;75.40;95955.25;10392533;28;20246;-70
2022/07/25 21:41:08;;;;;;;16.85;8.20;;;;;;;22.07;75.04;95948.38;10409630;28;20188;-70
2022/07/25 21:46:08;;;;;;;13.93;7.65;;;;;;;22.02;75.50;95939.50;10409283;28;20254;-71
2022/07/25 21:51:09;;;;;;;14.88;8.30;;;;;;;21.99;75.23;95927.50;10408842;28;20191;-71
2022/07/25 21:56:10;;;;;;;13.07;8.77;;;;;;;21.97;75.46;95937.59;10407622;28;20228;-71
2022/07/25 22:01:10;;;;;;;18.27;7.75;;;;;;;21.83;76.15;95936.34;10411000;28;20200;-71
2022/07/25 22:06:10;;;;;;;11.73;7.45;;;;;;;21.69;76.87;95928.72;10416434;28;20185;-71
2022/07/25 22:11:11;;;;;;;12.77;7.88;;;;;;;21.70;76.72;95938.31;10415633;28;20403;-71
2022/07/25 22:16:12;;;;;;;15.75;8.20;;;;;;;21.46;77.86;95939.56;10416520;28;20278;-71
2022/07/25 22:21:12;;;;;;;12.85;7.90;;;;;;;21.55;77.77;95957.56;10416053;28;20197;-71
2022/07/25 22:26:13;;;;;;;13.30;7.97;;;;;;;21.46;78.51;95968.88;10415890;28;20192;-71
2022/07/25 22:31:13;;;;;;;17.40;8.40;;;;;;;21.33;80.21;95986.81;10415835;28;20867;-71
2022/07/25 22:36:14;;;;;;;18.20;8.30;;;;;;;21.27;80.31;95990.44;10415473;28;20275;-71
2022/07/25 22:41:14;;;;;;;15.18;7.97;;;;;;;21.40;77.83;95970.66;10415396;28;20303;-71
2022/07/25 22:46:14;;;;;;;13.98;6.40;;;;;;;21.91;74.13;95959.91;10414870;28;20188;-71
2022/07/25 22:51:15;;;;;;;11.15;6.88;;;;;;;22.04;73.03;95970.22;10414880;28;20180;-71
2022/07/25 22:56:15;;;;;;;11.20;6.90;;;;;;;22.21;72.30;95982.69;10415004;28;20220;-71
2022/07/25 23:01:17;;;;;;;11.90;6.70;;;;;;;22.27;72.43;95998.50;10414441;28;20200;-71
2022/07/25 23:06:18;;;;;;;9.48;7.15;;;;;;;22.15;73.27;96029.84;10414682;28;20597;-71
2022/07/25 23:11:18;;;;;;;11.15;7.53;;;;;;;21.94;77.09;96058.09;10413372;28;20248;-71
2022/07/25 23:16:19;;;;;;;13.00;7.45;;;;;;;21.81;79.90;96074.47;10413103;28;20213;-71
2022/07/25 23:21:19;;;;;;;22.63;8.30;;;;;;;21.56;83.63;96086.31;10413809;28;20656;-71
2022/07/25 23:26:20;;;;;;;15.23;9.05;;;;;;;21.30;89.60;96107.19;10413760;28;20181;-71
2022/07/25 23:31:21;;;;;;;11.13;9.27;;;;;;;21.04;98.27;96116.53;10395793;28;20189;-71
2022/07/25 23:36:21;;;;;;;15.48;8.90;;;;;;;20.76;100.00;96135.97;10412711;28;20224;-71
2022/07/25 23:41:21;;;;;;;17.35;15.02;;;;;;;20.63;100.00;96148.47;10413210;28;20560;-71
2022/07/25 23:46:22;;;;;;;41.40;27.27;;;;;;;20.43;100.00;96153.38;10412290;28;20683;-71
2022/07/25 23:51:22;;;;;;;36.75;27.30;;;;;;;20.26;100.00;96171.84;10412679;28;20211;-71
2022/07/25 23:56:23;;;;;;;38.53;27.92;;;;;;;20.06;100.00;96172.19;10412609;28;20228;-71
